sensor_id;sensor_type;location;lat;lon;timestamp;temperature;humidity
35541;DHT22;21650;48.840;9.162;2022-10-18T00:00:39;14.00;99.90
35541;DHT22;21650;48.840;9.162;2022-10-18T00:03:05;14.00;99.90
35541;DHT22;21650;48.840;9.162;2022-10-18T00:05:31;14.00;99.90
35541;DHT22;21650;48.840;9.162;2022-10-18T00:07:56;13.90;99.90
35541;DHT22;21650;48.840;9.162;2022-10-18T00:10:22;14.00;99.90
35541;DHT22;21650;48.840;9.162;2022-10-18T00:12:49;14.00;99.90
35541;DHT22;21650;48.840;9.162;2022-10-18T00:15:15;14.00;99.90
35541;DHT22;21650;48.840;9.162;2022-10-18T00:17:40;14.10;99.90
35541;DHT22;21650;48.840;9.162;2022-10-18T00:20:06;14.00;99.90
35541;DHT22;21650;48.840;9.162;2022-10-18T00:22:37;14.00;99.90
35541;DHT22;21650;48.840;9.162;2022-10-18T00:25:04;14.00;99.90
35541;DHT22;21650;48.840;9.162;2022-10-18T00:27:31;14.00;99.90
35541;DHT22;21650;48.840;9.162;2022-10-18T00:29:56;13.90;99.90
35541;DHT22;21650;48.840;9.162;2022-10-18T00:32:22;13.90;99.90
35541;DHT22;21650;48.840;9.162;2022-10-18T00:34:48;13.90;99.90
35541;DHT22;21650;48.840;9.162;2022-10-18T00:37:14;13.90;99.90
35541;DHT22;21650;48.840;9.162;2022-10-18T00:39:39;13.90;99.90
35541;DHT22;21650;48.840;9.162;2022-10-18T00:42:05;13.90;99.90
35541;DHT22;21650;48.840;9.162;2022-10-18T00:47:02;13.80;99.90
35541;DHT22;21650;48.840;9.162;2022-10-18T00:49:44;13.80;99.90
35541;DHT22;21650;48.840;9.162;2022-10-18T00:52:20;13.80;99.90
35541;DHT22;21650;48.840;9.162;2022-10-18T00:54:48;13.80;99.90
35541;DHT22;21650;48.840;9.162;2022-10-18T00:57:16;13.80;99.90
35541;DHT22;21650;48.840;9.162;2022-10-18T00:59:42;13.80;99.90
35541;DHT22;21650;48.840;9.162;2022-10-18T01:02:08;13.80;99.90
35541;DHT22;21650;48.840;9.162;2022-10-18T01:04:34;13.90;99.90
35541;DHT22;21650;48.840;9.162;2022-10-18T01:09:44;13.90;99.90
35541;DHT22;21650;48.840;9.162;2022-10-18T01:12:35;13.90;99.90
35541;DHT22;21650;48.840;9.162;2022-10-18T01:31:46;14.10;99.90
35541;DHT22;21650;48.840;9.162;2022-10-18T01:34:15;14.10;99.90
35541;DHT22;21650;48.840;9.162;2022-10-18T01:36:53;14.10;99.90
35541;DHT22;21650;48.840;9.162;2022-10-18T01:39:27;14.10;99.90
35541;DHT22;21650;48.840;9.162;2022-10-18T01:41:54;14.20;99.90
35541;DHT22;21650;48.840;9.162;2022-10-18T01:44:23;14.20;99.90
35541;DHT22;21650;48.840;9.162;2022-10-18T01:46:54;14.20;99.90
35541;DHT22;21650;48.840;9.162;2022-10-18T01:49:20;14.20;99.90
35541;DHT22;21650;48.840;9.162;2022-10-18T01:51:46;14.20;99.90
35541;DHT22;21650;48.840;9.162;2022-10-18T01:54:16;14.20;99.90
35541;DHT22;21650;48.840;9.162;2022-10-18T01:59:38;14.30;99.90
35541;DHT22;21650;48.840;9.162;2022-10-18T02:10:21;14.20;99.90
35541;DHT22;21650;48.840;9.162;2022-10-18T02:12:45;14.20;99.90
35541;DHT22;21650;48.840;9.162;2022-10-18T02:15:16;14.20;99.90
35541;DHT22;21650;48.840;9.162;2022-10-18T02:17:44;14.20;99.90
35541;DHT22;21650;48.840;9.162;2022-10-18T02:20:17;14.20;99.90
35541;DHT22;21650;48.840;9.162;2022-10-18T02:22:45;14.20;99.90
35541;DHT22;21650;48.840;9.162;2022-10-18T02:25:17;14.20;99.90
35541;DHT22;21650;48.840;9.162;2022-10-18T02:27:44;14.20;99.90
35541;DHT22;21650;48.840;9.162;2022-10-18T02:30:11;14.20;99.90
35541;DHT22;21650;48.840;9.162;2022-10-18T02:32:46;14.20;99.90
35541;DHT22;21650;48.840;9.162;2022-10-18T02:38:15;14.20;99.90
35541;DHT22;21650;48.840;9.162;2022-10-18T02:40:41;14.20;99.90
35541;DHT22;21650;48.840;9.162;2022-10-18T02:43:07;14.30;99.90
35541;DHT22;21650;48.840;9.162;2022-10-18T02:45:33;14.20;99.90
35541;DHT22;21650;48.840;9.162;2022-10-18T02:47:58;14.20;99.90
35541;DHT22;21650;48.840;9.162;2022-10-18T02:50:24;14.20;99.90
35541;DHT22;21650;48.840;9.162;2022-10-18T02:52:50;14.20;99.90
35541;DHT22;21650;48.840;9.162;2022-10-18T02:55:15;14.30;99.90
35541;DHT22;21650;48.840;9.162;2022-10-18T02:57:41;14.20;99.90
35541;DHT22;21650;48.840;9.162;2022-10-18T03:00:07;14.20;99.90
35541;DHT22;21650;48.840;9.162;2022-10-18T03:02:33;14.20;99.90
35541;DHT22;21650;48.840;9.162;2022-10-18T03:04:58;14.20;99.90
35541;DHT22;21650;48.840;9.162;2022-10-18T03:07:24;14.30;99.90
35541;DHT22;21650;48.840;9.162;2022-10-18T03:09:49;14.20;99.90
35541;DHT22;21650;48.840;9.162;2022-10-18T03:12:15;14.20;99.90
35541;DHT22;21650;48.840;9.162;2022-10-18T03:14:41;14.20;99.90
35541;DHT22;21650;48.840;9.162;2022-10-18T03:17:06;14.30;99.90
35541;DHT22;21650;48.840;9.162;2022-10-18T03:19:32;14.20;99.90
35541;DHT22;21650;48.840;9.162;2022-10-18T03:21:58;14.20;99.90
35541;DHT22;21650;48.840;9.162;2022-10-18T03:24:23;14.20;99.90
35541;DHT22;21650;48.840;9.162;2022-10-18T03:26:49;14.20;99.90
35541;DHT22;21650;48.840;9.162;2022-10-18T03:29:14;14.20;99.90
35541;DHT22;21650;48.840;9.162;2022-10-18T03:31:40;14.20;99.90
35541;DHT22;21650;48.840;9.162;2022-10-18T03:34:06;14.20;99.90
35541;DHT22;21650;48.840;9.162;2022-10-18T03:36:31;14.20;99.90
35541;DHT22;21650;48.840;9.162;2022-10-18T03:38:58;14.10;99.90
35541;DHT22;21650;48.840;9.162;2022-10-18T03:41:23;14.10;99.90
35541;DHT22;21650;48.840;9.162;2022-10-18T03:43:49;14.10;99.90
35541;DHT22;21650;48.840;9.162;2022-10-18T03:46:15;14.10;99.90
35541;DHT22;21650;48.840;9.162;2022-10-18T03:48:40;14.10;99.90
35541;DHT22;21650;48.840;9.162;2022-10-18T03:51:06;14.10;99.90
35541;DHT22;21650;48.840;9.162;2022-10-18T03:53:31;14.00;99.90
35541;DHT22;21650;48.840;9.162;2022-10-18T03:55:57;14.00;99.90
35541;DHT22;21650;48.840;9.162;2022-10-18T03:58:23;14.00;99.90
35541;DHT22;21650;48.840;9.162;2022-10-18T04:00:52;13.90;99.90
35541;DHT22;21650;48.840;9.162;2022-10-18T04:03:19;13.90;99.90
35541;DHT22;21650;48.840;9.162;2022-10-18T04:05:46;13.90;99.90
35541;DHT22;21650;48.840;9.162;2022-10-18T04:08:12;13.90;99.90
35541;DHT22;21650;48.840;9.162;2022-10-18T04:10:38;13.90;99.90
35541;DHT22;21650;48.840;9.162;2022-10-18T04:13:05;13.90;99.90
35541;DHT22;21650;48.840;9.162;2022-10-18T04:15:31;13.90;99.90
35541;DHT22;21650;48.840;9.162;2022-10-18T04:17:57;13.90;99.90
35541;DHT22;21650;48.840;9.162;2022-10-18T04:20:23;14.00;99.90
35541;DHT22;21650;48.840;9.162;2022-10-18T04:22:49;13.90;99.90
35541;DHT22;21650;48.840;9.162;2022-10-18T04:25:15;13.90;99.90
35541;DHT22;21650;48.840;9.162;2022-10-18T04:27:41;13.90;99.90
35541;DHT22;21650;48.840;9.162;2022-10-18T04:30:07;14.00;99.90
35541;DHT22;21650;48.840;9.162;2022-10-18T04:32:32;14.00;99.90
35541;DHT22;21650;48.840;9.162;2022-10-18T04:35:03;14.00;99.90
35541;DHT22;21650;48.840;9.162;2022-10-18T04:37:29;14.00;99.90
35541;DHT22;21650;48.840;9.162;2022-10-18T04:39:54;14.00;99.90
35541;DHT22;21650;48.840;9.162;2022-10-18T04:42:20;14.00;99.90
35541;DHT22;21650;48.840;9.162;2022-10-18T04:44:46;14.10;99.90
35541;DHT22;21650;48.840;9.162;2022-10-18T04:47:11;14.10;99.90
35541;DHT22;21650;48.840;9.162;2022-10-18T04:49:37;14.00;99.90
35541;DHT22;21650;48.840;9.162;2022-10-18T04:52:03;14.10;99.90
35541;DHT22;21650;48.840;9.162;2022-10-18T04:54:28;14.10;99.90
35541;DHT22;21650;48.840;9.162;2022-10-18T04:56:54;14.10;99.90
35541;DHT22;21650;48.840;9.162;2022-10-18T04:59:20;14.10;99.90
35541;DHT22;21650;48.840;9.162;2022-10-18T05:01:45;14.10;99.90
35541;DHT22;21650;48.840;9.162;2022-10-18T05:04:11;14.10;99.90
35541;DHT22;21650;48.840;9.162;2022-10-18T05:06:36;14.00;99.90
35541;DHT22;21650;48.840;9.162;2022-10-18T05:09:02;14.10;99.90
35541;DHT22;21650;48.840;9.162;2022-10-18T05:11:28;14.10;99.90
35541;DHT22;21650;48.840;9.162;2022-10-18T05:13:54;14.00;99.90
35541;DHT22;21650;48.840;9.162;2022-10-18T05:16:19;14.00;99.90
35541;DHT22;21650;48.840;9.162;2022-10-18T05:18:45;14.00;99.90
35541;DHT22;21650;48.840;9.162;2022-10-18T05:21:10;14.00;99.90
35541;DHT22;21650;48.840;9.162;2022-10-18T05:23:37;14.00;99.90
35541;DHT22;21650;48.840;9.162;2022-10-18T05:26:04;14.00;99.90
35541;DHT22;21650;48.840;9.162;2022-10-18T05:28:31;13.90;99.90
35541;DHT22;21650;48.840;9.162;2022-10-18T05:31:04;13.90;99.90
35541;DHT22;21650;48.840;9.162;2022-10-18T05:33:30;13.80;99.90
35541;DHT22;21650;48.840;9.162;2022-10-18T05:35:56;13.80;99.90
35541;DHT22;21650;48.840;9.162;2022-10-18T05:38:22;13.80;99.90
35541;DHT22;21650;48.840;9.162;2022-10-18T05:40:47;13.80;99.90
35541;DHT22;21650;48.840;9.162;2022-10-18T05:43:13;13.70;99.90
35541;DHT22;21650;48.840;9.162;2022-10-18T05:45:39;13.70;99.90
35541;DHT22;21650;48.840;9.162;2022-10-18T05:48:04;13.60;99.90
35541;DHT22;21650;48.840;9.162;2022-10-18T05:50:32;13.60;99.90
35541;DHT22;21650;48.840;9.162;2022-10-18T05:52:58;13.70;99.90
35541;DHT22;21650;48.840;9.162;2022-10-18T05:55:24;13.60;99.90
35541;DHT22;21650;48.840;9.162;2022-10-18T05:57:50;13.70;99.90
35541;DHT22;21650;48.840;9.162;2022-10-18T06:00:16;13.60;99.90
35541;DHT22;21650;48.840;9.162;2022-10-18T06:02:42;13.60;99.90
35541;DHT22;21650;48.840;9.162;2022-10-18T06:05:07;13.60;99.90
35541;DHT22;21650;48.840;9.162;2022-10-18T06:07:33;13.50;99.90
35541;DHT22;21650;48.840;9.162;2022-10-18T06:09:59;13.50;99.90
35541;DHT22;21650;48.840;9.162;2022-10-18T06:12:24;13.50;99.90
35541;DHT22;21650;48.840;9.162;2022-10-18T06:14:50;13.50;99.90
35541;DHT22;21650;48.840;9.162;2022-10-18T06:17:15;13.50;99.90
35541;DHT22;21650;48.840;9.162;2022-10-18T06:19:41;13.60;99.90
35541;DHT22;21650;48.840;9.162;2022-10-18T06:22:09;13.60;99.90
35541;DHT22;21650;48.840;9.162;2022-10-18T06:24:34;13.70;99.90
35541;DHT22;21650;48.840;9.162;2022-10-18T06:27:00;13.70;99.90
35541;DHT22;21650;48.840;9.162;2022-10-18T06:29:25;13.80;99.90
35541;DHT22;21650;48.840;9.162;2022-10-18T06:31:51;14.00;99.90
35541;DHT22;21650;48.840;9.162;2022-10-18T06:34:16;14.10;99.90
35541;DHT22;21650;48.840;9.162;2022-10-18T06:36:42;14.10;99.90
35541;DHT22;21650;48.840;9.162;2022-10-18T06:39:08;14.20;99.90
35541;DHT22;21650;48.840;9.162;2022-10-18T06:41:34;14.30;99.90
35541;DHT22;21650;48.840;9.162;2022-10-18T06:44:00;14.40;99.90
35541;DHT22;21650;48.840;9.162;2022-10-18T06:46:31;14.50;99.90
35541;DHT22;21650;48.840;9.162;2022-10-18T06:48:57;14.50;99.90
35541;DHT22;21650;48.840;9.162;2022-10-18T06:51:23;14.60;99.90
35541;DHT22;21650;48.840;9.162;2022-10-18T06:53:48;14.60;99.90
35541;DHT22;21650;48.840;9.162;2022-10-18T06:56:14;14.70;99.90
35541;DHT22;21650;48.840;9.162;2022-10-18T06:58:40;14.80;99.90
35541;DHT22;21650;48.840;9.162;2022-10-18T07:01:07;14.80;99.90
35541;DHT22;21650;48.840;9.162;2022-10-18T07:03:33;14.80;99.90
35541;DHT22;21650;48.840;9.162;2022-10-18T07:06:01;14.90;99.90
35541;DHT22;21650;48.840;9.162;2022-10-18T07:08:27;14.90;99.90
35541;DHT22;21650;48.840;9.162;2022-10-18T07:10:53;15.00;99.90
35541;DHT22;21650;48.840;9.162;2022-10-18T07:13:19;15.00;99.90
35541;DHT22;21650;48.840;9.162;2022-10-18T07:15:45;15.00;99.90
35541;DHT22;21650;48.840;9.162;2022-10-18T07:18:10;15.00;99.90
35541;DHT22;21650;48.840;9.162;2022-10-18T07:20:36;15.00;99.90
35541;DHT22;21650;48.840;9.162;2022-10-18T07:23:01;15.10;99.90
35541;DHT22;21650;48.840;9.162;2022-10-18T07:25:27;15.10;99.90
35541;DHT22;21650;48.840;9.162;2022-10-18T07:27:53;15.10;99.90
35541;DHT22;21650;48.840;9.162;2022-10-18T07:30:19;15.20;99.90
35541;DHT22;21650;48.840;9.162;2022-10-18T07:32:44;15.20;99.90
35541;DHT22;21650;48.840;9.162;2022-10-18T07:35:10;15.20;99.90
35541;DHT22;21650;48.840;9.162;2022-10-18T07:37:35;15.30;99.90
35541;DHT22;21650;48.840;9.162;2022-10-18T07:40:01;15.40;99.90
35541;DHT22;21650;48.840;9.162;2022-10-18T07:42:27;15.50;99.90
35541;DHT22;21650;48.840;9.162;2022-10-18T07:44:52;15.50;99.90
35541;DHT22;21650;48.840;9.162;2022-10-18T07:47:18;15.70;99.90
35541;DHT22;21650;48.840;9.162;2022-10-18T07:49:43;15.80;99.90
35541;DHT22;21650;48.840;9.162;2022-10-18T07:52:10;15.90;99.90
35541;DHT22;21650;48.840;9.162;2022-10-18T07:54:35;16.00;99.90
35541;DHT22;21650;48.840;9.162;2022-10-18T07:57:03;16.20;99.90
35541;DHT22;21650;48.840;9.162;2022-10-18T07:59:28;16.40;99.90
35541;DHT22;21650;48.840;9.162;2022-10-18T08:01:54;16.70;99.90
35541;DHT22;21650;48.840;9.162;2022-10-18T08:04:20;16.80;99.90
35541;DHT22;21650;48.840;9.162;2022-10-18T08:06:45;16.90;99.90
35541;DHT22;21650;48.840;9.162;2022-10-18T08:09:12;17.10;99.90
35541;DHT22;21650;48.840;9.162;2022-10-18T08:11:37;17.20;99.90
35541;DHT22;21650;48.840;9.162;2022-10-18T08:14:03;17.40;99.90
35541;DHT22;21650;48.840;9.162;2022-10-18T08:16:29;17.50;99.90
35541;DHT22;21650;48.840;9.162;2022-10-18T08:18:57;17.60;99.90
35541;DHT22;21650;48.840;9.162;2022-10-18T08:21:22;17.50;99.90
35541;DHT22;21650;48.840;9.162;2022-10-18T08:23:48;17.50;99.90
35541;DHT22;21650;48.840;9.162;2022-10-18T08:26:17;17.50;99.90
35541;DHT22;21650;48.840;9.162;2022-10-18T08:28:43;17.60;99.90
35541;DHT22;21650;48.840;9.162;2022-10-18T08:31:11;17.70;99.90
35541;DHT22;21650;48.840;9.162;2022-10-18T08:33:37;17.90;99.90
35541;DHT22;21650;48.840;9.162;2022-10-18T08:36:06;18.00;99.90
35541;DHT22;21650;48.840;9.162;2022-10-18T08:38:37;18.00;99.90
35541;DHT22;21650;48.840;9.162;2022-10-18T08:44:07;18.20;99.90
35541;DHT22;21650;48.840;9.162;2022-10-18T08:46:33;18.20;99.90
35541;DHT22;21650;48.840;9.162;2022-10-18T08:49:00;18.30;99.90
35541;DHT22;21650;48.840;9.162;2022-10-18T08:51:48;18.40;99.90
35541;DHT22;21650;48.840;9.162;2022-10-18T08:54:34;18.50;99.90
35541;DHT22;21650;48.840;9.162;2022-10-18T08:57:04;18.60;99.90
35541;DHT22;21650;48.840;9.162;2022-10-18T08:59:39;18.80;99.90
35541;DHT22;21650;48.840;9.162;2022-10-18T09:05:15;19.10;99.90
35541;DHT22;21650;48.840;9.162;2022-10-18T09:16:20;19.60;99.90
35541;DHT22;21650;48.840;9.162;2022-10-18T09:19:01;19.20;99.90
35541;DHT22;21650;48.840;9.162;2022-10-18T09:21:35;18.90;99.90
35541;DHT22;21650;48.840;9.162;2022-10-18T09:24:26;18.70;99.90
35541;DHT22;21650;48.840;9.162;2022-10-18T09:27:04;18.80;99.90
35541;DHT22;21650;48.840;9.162;2022-10-18T09:35:00;18.30;99.90
35541;DHT22;21650;48.840;9.162;2022-10-18T09:37:28;18.20;99.90
35541;DHT22;21650;48.840;9.162;2022-10-18T09:40:04;17.90;99.90
35541;DHT22;21650;48.840;9.162;2022-10-18T09:42:36;17.90;99.90
35541;DHT22;21650;48.840;9.162;2022-10-18T09:45:25;17.90;99.90
35541;DHT22;21650;48.840;9.162;2022-10-18T09:48:10;17.80;99.90
35541;DHT22;21650;48.840;9.162;2022-10-18T09:51:11;17.90;99.90
35541;DHT22;21650;48.840;9.162;2022-10-18T09:53:46;18.10;99.90
35541;DHT22;21650;48.840;9.162;2022-10-18T09:56:20;18.10;99.90
35541;DHT22;21650;48.840;9.162;2022-10-18T09:58:49;18.00;99.90
35541;DHT22;21650;48.840;9.162;2022-10-18T10:01:22;18.00;99.90
35541;DHT22;21650;48.840;9.162;2022-10-18T10:03:48;18.10;99.90
35541;DHT22;21650;48.840;9.162;2022-10-18T10:06:16;18.20;99.90
35541;DHT22;21650;48.840;9.162;2022-10-18T10:08:48;18.30;99.90
35541;DHT22;21650;48.840;9.162;2022-10-18T10:11:33;18.40;99.90
35541;DHT22;21650;48.840;9.162;2022-10-18T10:14:15;18.50;99.90
35541;DHT22;21650;48.840;9.162;2022-10-18T10:22:08;18.70;99.90
35541;DHT22;21650;48.840;9.162;2022-10-18T10:24:51;18.80;99.90
35541;DHT22;21650;48.840;9.162;2022-10-18T10:27:21;18.80;99.90
35541;DHT22;21650;48.840;9.162;2022-10-18T10:29:51;18.90;99.90
35541;DHT22;21650;48.840;9.162;2022-10-18T10:32:21;18.70;99.90
35541;DHT22;21650;48.840;9.162;2022-10-18T10:34:47;19.00;99.90
35541;DHT22;21650;48.840;9.162;2022-10-18T10:40:18;19.00;99.90
35541;DHT22;21650;48.840;9.162;2022-10-18T10:42:58;18.90;99.90
35541;DHT22;21650;48.840;9.162;2022-10-18T10:45:26;19.00;99.90
35541;DHT22;21650;48.840;9.162;2022-10-18T10:47:54;19.20;99.90
35541;DHT22;21650;48.840;9.162;2022-10-18T10:50:27;19.30;99.90
35541;DHT22;21650;48.840;9.162;2022-10-18T10:52:54;19.50;99.90
35541;DHT22;21650;48.840;9.162;2022-10-18T10:55:24;19.80;99.90
35541;DHT22;21650;48.840;9.162;2022-10-18T10:57:53;19.90;99.90
35541;DHT22;21650;48.840;9.162;2022-10-18T11:03:24;20.10;99.90
35541;DHT22;21650;48.840;9.162;2022-10-18T11:05:52;20.00;99.90
35541;DHT22;21650;48.840;9.162;2022-10-18T11:08:37;20.00;99.90
35541;DHT22;21650;48.840;9.162;2022-10-18T11:11:20;20.20;99.90
35541;DHT22;21650;48.840;9.162;2022-10-18T11:14:08;20.40;99.90
35541;DHT22;21650;48.840;9.162;2022-10-18T11:16:59;20.40;99.90
35541;DHT22;21650;48.840;9.162;2022-10-18T11:22:24;20.40;99.90
35541;DHT22;21650;48.840;9.162;2022-10-18T11:24:52;20.40;99.90
35541;DHT22;21650;48.840;9.162;2022-10-18T11:27:40;20.50;99.90
35541;DHT22;21650;48.840;9.162;2022-10-18T11:33:14;20.80;99.90
35541;DHT22;21650;48.840;9.162;2022-10-18T11:35:45;20.80;99.90
35541;DHT22;21650;48.840;9.162;2022-10-18T11:38:22;20.90;99.90
35541;DHT22;21650;48.840;9.162;2022-10-18T11:41:22;20.90;99.90
35541;DHT22;21650;48.840;9.162;2022-10-18T11:43:56;20.90;99.90
35541;DHT22;21650;48.840;9.162;2022-10-18T11:46:30;20.90;99.90
35541;DHT22;21650;48.840;9.162;2022-10-18T11:52:07;20.60;99.90
35541;DHT22;21650;48.840;9.162;2022-10-18T12:00:50;20.20;99.90
35541;DHT22;21650;48.840;9.162;2022-10-18T12:05:47;20.20;99.90
35541;DHT22;21650;48.840;9.162;2022-10-18T12:08:17;20.10;99.90
35541;DHT22;21650;48.840;9.162;2022-10-18T12:10:51;20.30;99.90
35541;DHT22;21650;48.840;9.162;2022-10-18T12:13:32;20.50;99.90
35541;DHT22;21650;48.840;9.162;2022-10-18T12:16:01;20.60;99.90
35541;DHT22;21650;48.840;9.162;2022-10-18T12:18:29;20.80;99.90
35541;DHT22;21650;48.840;9.162;2022-10-18T12:20:57;20.70;99.90
35541;DHT22;21650;48.840;9.162;2022-10-18T12:23:41;20.60;99.90
35541;DHT22;21650;48.840;9.162;2022-10-18T12:26:09;20.60;99.90
35541;DHT22;21650;48.840;9.162;2022-10-18T12:31:25;20.60;99.90
35541;DHT22;21650;48.840;9.162;2022-10-18T12:34:02;20.70;99.90
35541;DHT22;21650;48.840;9.162;2022-10-18T12:36:53;20.60;99.90
35541;DHT22;21650;48.840;9.162;2022-10-18T12:39:36;20.70;99.90
35541;DHT22;21650;48.840;9.162;2022-10-18T12:42:04;20.60;99.90
35541;DHT22;21650;48.840;9.162;2022-10-18T12:44:32;20.40;99.90
35541;DHT22;21650;48.840;9.162;2022-10-18T12:47:00;20.20;99.90
35541;DHT22;21650;48.840;9.162;2022-10-18T12:49:32;20.20;99.90
35541;DHT22;21650;48.840;9.162;2022-10-18T12:52:20;20.30;99.90
35541;DHT22;21650;48.840;9.162;2022-10-18T12:58:02;20.30;99.90
35541;DHT22;21650;48.840;9.162;2022-10-18T13:08:35;20.60;99.90
35541;DHT22;21650;48.840;9.162;2022-10-18T13:24:34;20.90;99.90
35541;DHT22;21650;48.840;9.162;2022-10-18T13:32:52;20.80;99.90
35541;DHT22;21650;48.840;9.162;2022-10-18T13:35:41;21.10;99.90
35541;DHT22;21650;48.840;9.162;2022-10-18T13:41:10;21.00;99.90
35541;DHT22;21650;48.840;9.162;2022-10-18T13:46:20;21.10;99.90
35541;DHT22;21650;48.840;9.162;2022-10-18T13:48:57;21.10;99.90
35541;DHT22;21650;48.840;9.162;2022-10-18T13:54:15;20.90;99.90
35541;DHT22;21650;48.840;9.162;2022-10-18T13:57:12;20.70;99.90
35541;DHT22;21650;48.840;9.162;2022-10-18T14:02:32;20.60;99.90
35541;DHT22;21650;48.840;9.162;2022-10-18T14:07:36;20.60;99.90
35541;DHT22;21650;48.840;9.162;2022-10-18T14:10:04;20.80;99.90
35541;DHT22;21650;48.840;9.162;2022-10-18T14:12:43;20.70;99.90
35541;DHT22;21650;48.840;9.162;2022-10-18T14:15:17;20.80;99.90
35541;DHT22;21650;48.840;9.162;2022-10-18T14:17:57;20.80;99.90
35541;DHT22;21650;48.840;9.162;2022-10-18T14:20:37;20.60;99.90
35541;DHT22;21650;48.840;9.162;2022-10-18T14:23:18;20.30;99.90
35541;DHT22;21650;48.840;9.162;2022-10-18T14:25:45;20.20;99.90
35541;DHT22;21650;48.840;9.162;2022-10-18T14:28:13;20.10;99.90
35541;DHT22;21650;48.840;9.162;2022-10-18T14:30:55;20.00;99.90
35541;DHT22;21650;48.840;9.162;2022-10-18T14:33:36;20.00;99.90
35541;DHT22;21650;48.840;9.162;2022-10-18T14:36:04;20.00;99.90
35541;DHT22;21650;48.840;9.162;2022-10-18T14:38:30;19.90;99.90
35541;DHT22;21650;48.840;9.162;2022-10-18T14:41:20;19.90;99.90
35541;DHT22;21650;48.840;9.162;2022-10-18T14:43:46;19.80;99.90
35541;DHT22;21650;48.840;9.162;2022-10-18T14:46:20;19.80;99.90
35541;DHT22;21650;48.840;9.162;2022-10-18T14:49:01;19.70;99.90
35541;DHT22;21650;48.840;9.162;2022-10-18T14:51:34;19.70;99.90
35541;DHT22;21650;48.840;9.162;2022-10-18T14:54:01;19.70;99.90
35541;DHT22;21650;48.840;9.162;2022-10-18T14:56:29;19.70;99.90
35541;DHT22;21650;48.840;9.162;2022-10-18T14:58:57;19.70;99.90
35541;DHT22;21650;48.840;9.162;2022-10-18T15:01:26;19.80;99.90
35541;DHT22;21650;48.840;9.162;2022-10-18T15:03:57;19.80;99.90
35541;DHT22;21650;48.840;9.162;2022-10-18T15:06:24;19.80;99.90
35541;DHT22;21650;48.840;9.162;2022-10-18T15:08:54;19.70;99.90
35541;DHT22;21650;48.840;9.162;2022-10-18T15:11:20;19.60;99.90
35541;DHT22;21650;48.840;9.162;2022-10-18T15:16:19;19.60;99.90
35541;DHT22;21650;48.840;9.162;2022-10-18T15:19:07;19.50;99.90
35541;DHT22;21650;48.840;9.162;2022-10-18T15:22:05;19.50;99.90
35541;DHT22;21650;48.840;9.162;2022-10-18T15:24:39;19.40;99.90
35541;DHT22;21650;48.840;9.162;2022-10-18T15:27:23;19.40;99.90
35541;DHT22;21650;48.840;9.162;2022-10-18T15:29:50;19.40;99.90
35541;DHT22;21650;48.840;9.162;2022-10-18T15:32:29;19.30;99.90
35541;DHT22;21650;48.840;9.162;2022-10-18T15:35:07;19.30;99.90
35541;DHT22;21650;48.840;9.162;2022-10-18T15:42:46;19.20;99.90
35541;DHT22;21650;48.840;9.162;2022-10-18T15:58:21;19.00;99.90
35541;DHT22;21650;48.840;9.162;2022-10-18T16:00:48;19.00;99.90
35541;DHT22;21650;48.840;9.162;2022-10-18T16:03:15;19.00;99.90
35541;DHT22;21650;48.840;9.162;2022-10-18T16:05:42;19.00;99.90
35541;DHT22;21650;48.840;9.162;2022-10-18T16:08:41;18.90;99.90
35541;DHT22;21650;48.840;9.162;2022-10-18T16:11:16;18.90;99.90
35541;DHT22;21650;48.840;9.162;2022-10-18T16:13:42;18.80;99.90
35541;DHT22;21650;48.840;9.162;2022-10-18T16:16:14;18.80;99.90
35541;DHT22;21650;48.840;9.162;2022-10-18T16:18:40;18.80;99.90
35541;DHT22;21650;48.840;9.162;2022-10-18T16:21:09;18.80;99.90
35541;DHT22;21650;48.840;9.162;2022-10-18T16:23:37;18.70;99.90
35541;DHT22;21650;48.840;9.162;2022-10-18T16:26:03;18.70;99.90
35541;DHT22;21650;48.840;9.162;2022-10-18T16:28:28;18.70;99.90
35541;DHT22;21650;48.840;9.162;2022-10-18T16:31:02;18.70;99.90
35541;DHT22;21650;48.840;9.162;2022-10-18T16:33:29;18.70;99.90
35541;DHT22;21650;48.840;9.162;2022-10-18T16:35:55;18.60;99.90
35541;DHT22;21650;48.840;9.162;2022-10-18T16:38:33;18.60;99.90
35541;DHT22;21650;48.840;9.162;2022-10-18T16:41:03;18.50;99.90
35541;DHT22;21650;48.840;9.162;2022-10-18T16:43:29;18.50;99.90
35541;DHT22;21650;48.840;9.162;2022-10-18T16:45:55;18.50;99.90
35541;DHT22;21650;48.840;9.162;2022-10-18T16:48:23;18.50;99.90
35541;DHT22;21650;48.840;9.162;2022-10-18T16:50:49;18.50;99.90
35541;DHT22;21650;48.840;9.162;2022-10-18T16:53:15;18.50;99.90
35541;DHT22;21650;48.840;9.162;2022-10-18T16:55:42;18.50;99.90
35541;DHT22;21650;48.840;9.162;2022-10-18T16:58:14;18.50;99.90
35541;DHT22;21650;48.840;9.162;2022-10-18T17:00:40;18.40;99.90
35541;DHT22;21650;48.840;9.162;2022-10-18T17:03:06;18.40;99.90
35541;DHT22;21650;48.840;9.162;2022-10-18T17:05:32;18.30;99.90
35541;DHT22;21650;48.840;9.162;2022-10-18T17:07:58;18.30;99.90
35541;DHT22;21650;48.840;9.162;2022-10-18T17:10:24;18.30;99.90
35541;DHT22;21650;48.840;9.162;2022-10-18T17:12:51;18.30;99.90
35541;DHT22;21650;48.840;9.162;2022-10-18T17:15:17;18.20;99.90
35541;DHT22;21650;48.840;9.162;2022-10-18T17:17:43;18.10;99.90
35541;DHT22;21650;48.840;9.162;2022-10-18T17:20:20;18.10;99.90
35541;DHT22;21650;48.840;9.162;2022-10-18T17:22:46;18.00;99.90
35541;DHT22;21650;48.840;9.162;2022-10-18T17:25:12;17.90;99.90
35541;DHT22;21650;48.840;9.162;2022-10-18T17:27:37;18.00;99.90
35541;DHT22;21650;48.840;9.162;2022-10-18T17:30:03;18.00;99.90
35541;DHT22;21650;48.840;9.162;2022-10-18T17:32:29;18.00;99.90
35541;DHT22;21650;48.840;9.162;2022-10-18T17:34:54;18.10;99.90
35541;DHT22;21650;48.840;9.162;2022-10-18T17:37:20;18.00;99.90
35541;DHT22;21650;48.840;9.162;2022-10-18T17:39:45;18.00;99.90
35541;DHT22;21650;48.840;9.162;2022-10-18T17:42:11;17.90;99.90
35541;DHT22;21650;48.840;9.162;2022-10-18T17:44:36;17.90;99.90
35541;DHT22;21650;48.840;9.162;2022-10-18T17:47:02;17.80;99.90
35541;DHT22;21650;48.840;9.162;2022-10-18T17:49:28;17.80;99.90
35541;DHT22;21650;48.840;9.162;2022-10-18T17:51:53;17.80;99.90
35541;DHT22;21650;48.840;9.162;2022-10-18T17:54:19;17.70;99.90
35541;DHT22;21650;48.840;9.162;2022-10-18T17:56:44;17.60;99.90
35541;DHT22;21650;48.840;9.162;2022-10-18T17:59:10;17.50;99.90
35541;DHT22;21650;48.840;9.162;2022-10-18T18:01:36;17.40;99.90
35541;DHT22;21650;48.840;9.162;2022-10-18T18:04:02;17.30;99.90
35541;DHT22;21650;48.840;9.162;2022-10-18T18:06:32;17.20;99.90
35541;DHT22;21650;48.840;9.162;2022-10-18T18:09:10;17.20;99.90
35541;DHT22;21650;48.840;9.162;2022-10-18T18:11:38;17.10;99.90
35541;DHT22;21650;48.840;9.162;2022-10-18T18:14:05;17.00;99.90
35541;DHT22;21650;48.840;9.162;2022-10-18T18:16:34;17.00;99.90